Time;durP1;ratioP1;P1;durP2;ratioP2;P2;SDS_P1;SDS_P2;PMS_P1;PMS_P2;Temp;Humidity;BMP_temperature;BMP_pressure;BME280_temperature;BME280_humidity;BME280_pressure;Samples;Min_cycle;Max_cycle;Signal;HPM_P1;HPM_P2
2021/05/12 00:02:34;;;;;;;9.97;4.33;;;;;;;;;;10226367;28;20515;-68
2021/05/12 00:07:32;;;;;;;11.75;5.32;;;;;;;;;;10227797;28;20030;-67
2021/05/12 00:12:30;;;;;;;11.67;7.10;;;;;;;;;;10244325;28;20125;-65
2021/05/12 00:17:29;;;;;;;9.57;5.40;;;;;;;;;;10231660;28;20034;-66
2021/05/12 00:22:48;;;;;;;10.05;5.70;;;;;;;;;;10212918;28;20073;-66
2021/05/12 00:27:46;;;;;;;8.32;4.63;;;;;;;;;;10239219;28;20042;-66
2021/05/12 00:32:45;;;;;;;9.43;4.47;;;;;;;;;;10248597;28;20030;-66
2021/05/12 00:37:43;;;;;;;11.10;5.63;;;;;;;;;;10249903;28;20410;-64
2021/05/12 00:42:41;;;;;;;15.80;5.30;;;;;;;;;;10227047;28;20038;-68
2021/05/12 00:47:38;;;;;;;11.47;4.53;;;;;;;;;;10255118;28;20383;-66
2021/05/12 00:52:36;;;;;;;13.27;4.27;;;;;;;;;;10252914;28;20038;-65
2021/05/12 00:57:34;;;;;;;13.17;4.93;;;;;;;;;;10241454;28;20064;-66
2021/05/12 01:02:33;;;;;;;10.47;5.00;;;;;;;;;;10231367;28;20026;-66
2021/05/12 01:07:30;;;;;;;17.15;6.05;;;;;;;;;;10249157;28;20487;-65
2021/05/12 01:12:28;;;;;;;10.63;5.47;;;;;;;;;;10261581;28;20037;-66
2021/05/12 01:17:25;;;;;;;10.50;5.67;;;;;;;;;;10243578;28;20038;-66
2021/05/12 01:22:23;;;;;;;11.50;5.33;;;;;;;;;;10240911;28;20384;-65
2021/05/12 01:27:20;;;;;;;13.20;5.03;;;;;;;;;;10241695;28;20038;-64
2021/05/12 01:32:18;;;;;;;8.90;5.33;;;;;;;;;;10239633;28;20085;-64
2021/05/12 01:37:15;;;;;;;9.17;4.50;;;;;;;;;;10268575;28;20041;-65
2021/05/12 01:42:12;;;;;;;15.43;5.80;;;;;;;;;;10233801;28;20488;-65
2021/05/12 01:47:10;;;;;;;9.93;5.83;;;;;;;;;;10259640;28;20053;-64
2021/05/12 01:52:07;;;;;;;10.20;5.40;;;;;;;;;;10271229;28;20040;-64
2021/05/12 01:57:05;;;;;;;9.70;5.30;;;;;;;;;;10228542;28;20180;-65
2021/05/12 02:02:02;;;;;;;11.70;5.57;;;;;;;;;;10266298;28;20169;-66
2021/05/12 02:07:00;;;;;;;8.80;5.33;;;;;;;;;;10261556;28;20037;-65
2021/05/12 02:11:57;;;;;;;11.60;6.10;;;;;;;;;;10278088;28;20146;-65
2021/05/12 02:16:55;;;;;;;16.03;6.60;;;;;;;;;;10264112;28;20049;-64
2021/05/12 02:21:52;;;;;;;12.80;5.30;;;;;;;;;;10268534;28;20395;-65
2021/05/12 02:26:49;;;;;;;11.57;8.60;;;;;;;;;;10257104;28;20030;-64
2021/05/12 02:31:47;;;;;;;7.43;3.97;;;;;;;;;;10262048;28;20026;-63
2021/05/12 02:36:44;;;;;;;15.60;6.40;;;;;;;;;;10251035;28;20071;-65
2021/05/12 02:41:42;;;;;;;6.63;3.50;;;;;;;;;;10255934;28;20022;-64
2021/05/12 02:46:39;;;;;;;9.83;4.53;;;;;;;;;;10259613;28;20084;-64
2021/05/12 02:51:37;;;;;;;7.47;3.60;;;;;;;;;;10253617;28;20033;-64
2021/05/12 02:56:34;;;;;;;9.63;4.27;;;;;;;;;;10281245;28;20072;-65
2021/05/12 03:01:31;;;;;;;6.43;2.80;;;;;;;;;;10272738;28;20056;-64
2021/05/12 03:06:29;;;;;;;10.30;5.63;;;;;;;;;;10271173;28;20045;-65
2021/05/12 03:11:26;;;;;;;9.70;4.50;;;;;;;;;;10250319;28;20398;-65
2021/05/12 03:16:24;;;;;;;2.50;1.37;;;;;;;;;;10259002;28;20578;-64
2021/05/12 03:21:21;;;;;;;11.13;5.07;;;;;;;;;;10262474;28;20764;-65
2021/05/12 03:26:19;;;;;;;4.53;1.27;;;;;;;;;;10300005;28;20057;-64
2021/05/12 03:31:17;;;;;;;10.63;4.47;;;;;;;;;;10304318;28;20033;-64
2021/05/12 03:36:14;;;;;;;14.27;5.67;;;;;;;;;;10275020;28;20075;-64
2021/05/12 03:41:12;;;;;;;8.27;2.93;;;;;;;;;;10271631;28;20475;-64
2021/05/12 03:46:09;;;;;;;5.47;3.13;;;;;;;;;;10262658;28;20034;-66
2021/05/12 03:51:07;;;;;;;4.47;3.17;;;;;;;;;;10263070;28;20118;-65
2021/05/12 03:56:04;;;;;;;13.50;6.90;;;;;;;;;;10273900;28;20502;-65
2021/05/12 04:01:02;;;;;;;11.83;5.97;;;;;;;;;;10244977;28;20042;-64
2021/05/12 04:05:59;;;;;;;19.77;9.90;;;;;;;;;;10262515;28;20104;-66
2021/05/12 04:10:57;;;;;;;8.50;3.70;;;;;;;;;;10245286;28;20034;-64
2021/05/12 04:15:54;;;;;;;15.10;6.07;;;;;;;;;;10263177;28;20503;-66
2021/05/12 04:20:51;;;;;;;9.93;4.57;;;;;;;;;;10244806;28;20519;-65
2021/05/12 04:25:49;;;;;;;13.80;6.03;;;;;;;;;;10262983;28;20038;-65
2021/05/12 04:30:46;;;;;;;13.00;6.57;;;;;;;;;;10212370;28;20041;-66
2021/05/12 04:35:44;;;;;;;10.73;5.23;;;;;;;;;;10232788;28;20498;-66
2021/05/12 04:40:41;;;;;;;15.00;6.07;;;;;;;;;;10246352;28;20164;-67
2021/05/12 04:45:39;;;;;;;8.87;5.53;;;;;;;;;;10258037;28;20030;-65
2021/05/12 04:50:39;;;;;;;12.50;6.50;;;;;;;;;;10230677;28;20037;-67
2021/05/12 04:55:37;;;;;;;12.13;6.32;;;;;;;;;;10235681;28;20057;-66
2021/05/12 05:00:34;;;;;;;12.30;6.03;;;;;;;;;;10243523;28;20065;-67
2021/05/12 05:05:32;;;;;;;15.37;5.43;;;;;;;;;;10249516;28;20148;-66
2021/05/12 05:10:29;;;;;;;12.63;5.60;;;;;;;;;;10233948;28;20402;-66
2021/05/12 05:15:26;;;;;;;14.60;6.00;;;;;;;;;;10244221;28;20456;-66
2021/05/12 05:20:26;;;;;;;14.23;5.00;;;;;;;;;;10252195;28;20387;-65
2021/05/12 05:25:23;;;;;;;8.77;4.28;;;;;;;;;;10256097;28;20893;-68
2021/05/12 05:30:21;;;;;;;11.73;4.73;;;;;;;;;;10257760;28;20038;-67
2021/05/12 05:35:37;;;;;;;10.95;4.97;;;;;;;;;;10259132;28;20026;-67
2021/05/12 05:40:53;;;;;;;13.55;4.38;;;;;;;;;;10245532;28;20050;-69
2021/05/12 05:46:09;;;;;;;11.27;4.47;;;;;;;;;;10248529;28;20030;-68
2021/05/12 05:51:25;;;;;;;9.40;3.80;;;;;;;;;;10244442;28;20086;-67
2021/05/12 05:56:41;;;;;;;6.97;4.07;;;;;;;;;;10227005;28;20506;-68
2021/05/12 06:01:57;;;;;;;9.90;3.45;;;;;;;;;;10226817;28;20125;-66
2021/05/12 06:07:14;;;;;;;7.60;3.15;;;;;;;;;;10237236;28;20041;-66
2021/05/12 06:12:30;;;;;;;7.40;2.40;;;;;;;;;;10245296;28;20053;-67
2021/05/12 06:17:46;;;;;;;6.55;2.78;;;;;;;;;;10237739;28;20637;-68
2021/05/12 06:23:03;;;;;;;7.20;2.95;;;;;;;;;;10260263;28;20109;-66
2021/05/12 06:28:19;;;;;;;10.88;3.13;;;;;;;;;;10254597;28;20538;-67
2021/05/12 06:33:38;;;;;;;8.98;3.42;;;;;;;;;;10253754;28;20038;-66
2021/05/12 06:39:07;;;;;;;5.95;3.13;;;;;;;;;;10213886;28;20044;-68
2021/05/12 06:44:06;;;;;;;9.13;3.03;;;;;;;;;;10247326;28;20140;-66
2021/05/12 06:49:03;;;;;;;5.67;2.10;;;;;;;;;;10240505;28;20042;-66
2021/05/12 06:54:01;;;;;;;10.13;3.93;;;;;;;;;;10233145;28;20037;-66
2021/05/12 06:58:58;;;;;;;5.87;3.17;;;;;;;;;;10239429;28;20030;-66
2021/05/12 07:03:56;;;;;;;6.80;3.47;;;;;;;;;;10229532;28;20041;-65
2021/05/12 07:08:53;;;;;;;5.63;2.73;;;;;;;;;;10250142;28;20038;-66
2021/05/12 07:13:52;;;;;;;4.87;2.73;;;;;;;;;;10250187;28;20038;-65
2021/05/12 07:18:49;;;;;;;4.90;2.67;;;;;;;;;;10251574;28;20034;-66
2021/05/12 07:23:47;;;;;;;5.60;2.77;;;;;;;;;;10241944;28;20521;-66
2021/05/12 07:28:45;;;;;;;5.00;2.53;;;;;;;;;;10252259;28;20451;-67
2021/05/12 07:33:43;;;;;;;6.97;2.55;;;;;;;;;;10238696;28;20034;-66
2021/05/12 07:38:40;;;;;;;3.67;2.10;;;;;;;;;;10218777;28;20038;-67
2021/05/12 07:43:38;;;;;;;2.93;2.03;;;;;;;;;;10252818;28;20113;-67
2021/05/12 07:48:35;;;;;;;4.23;2.13;;;;;;;;;;10250373;28;20038;-68
2021/05/12 07:53:32;;;;;;;2.13;1.10;;;;;;;;;;10235697;28;20037;-66
2021/05/12 07:58:30;;;;;;;2.37;1.53;;;;;;;;;;10240517;28;20034;-66
2021/05/12 08:03:27;;;;;;;8.13;2.30;;;;;;;;;;10246307;28;21939;-66
2021/05/12 08:08:25;;;;;;;3.23;2.23;;;;;;;;;;10246531;28;20054;-66
2021/05/12 08:13:22;;;;;;;1.80;1.07;;;;;;;;;;10238851;28;20026;-67
2021/05/12 08:18:19;;;;;;;3.93;1.70;;;;;;;;;;10252759;28;20077;-67
2021/05/12 08:23:17;;;;;;;5.83;2.07;;;;;;;;;;10231792;28;20038;-67
2021/05/12 08:28:14;;;;;;;7.13;2.63;;;;;;;;;;10242585;28;20062;-66
2021/05/12 08:33:12;;;;;;;6.67;1.83;;;;;;;;;;10230873;28;20034;-68
2021/05/12 08:38:13;;;;;;;4.70;2.08;;;;;;;;;;10255945;28;20026;-68
2021/05/12 08:43:11;;;;;;;7.57;1.75;;;;;;;;;;10229280;28;20065;-65
2021/05/12 08:48:12;;;;;;;5.97;2.30;;;;;;;;;;10235281;28;20030;-67
2021/05/12 08:53:10;;;;;;;7.07;3.30;;;;;;;;;;10224942;28;20046;-65
2021/05/12 08:58:07;;;;;;;7.57;2.80;;;;;;;;;;10259864;28;20044;-65
2021/05/12 09:03:05;;;;;;;4.40;2.20;;;;;;;;;;10251655;28;20639;-69
2021/05/12 09:08:02;;;;;;;4.17;2.90;;;;;;;;;;10252168;28;20095;-67
2021/05/12 09:13:00;;;;;;;4.07;1.97;;;;;;;;;;10257514;28;20038;-69
2021/05/12 09:18:02;;;;;;;4.30;1.80;;;;;;;;;;10258296;28;20038;-68
2021/05/12 09:22:59;;;;;;;2.97;1.38;;;;;;;;;;10256740;28;20045;-67
2021/05/12 09:28:15;;;;;;;3.47;1.47;;;;;;;;;;10249212;28;20045;-67
2021/05/12 09:33:27;;;;;;;4.97;2.28;;;;;;;;;;10230377;28;20057;-67
2021/05/12 09:38:25;;;;;;;3.53;1.42;;;;;;;;;;10249063;28;20034;-67
2021/05/12 09:43:22;;;;;;;;;;;;;;;;;;10254309;28;20283;-67
2021/05/12 09:48:20;;;;;;;3.28;1.75;;;;;;;;;;10241406;28;19928;-66
2021/05/12 09:53:17;;;;;;;6.33;1.43;;;;;;;;;;10250286;28;20045;-66
2021/05/12 09:58:16;;;;;;;1.47;1.10;;;;;;;;;;10250412;28;20041;-68
2021/05/12 10:03:14;;;;;;;1.73;0.80;;;;;;;;;;10238301;28;20034;-67
2021/05/12 10:08:19;;;;;;;1.42;0.88;;;;;;;;;;10245082;28;20030;-68
2021/05/12 10:13:16;;;;;;;3.15;1.40;;;;;;;;;;10207658;28;20057;-66
2021/05/12 10:18:13;;;;;;;1.73;0.90;;;;;;;;;;10254834;28;20061;-67
2021/05/12 10:23:11;;;;;;;1.37;1.13;;;;;;;;;;10246513;28;20030;-69
2021/05/12 10:28:08;;;;;;;1.50;0.90;;;;;;;;;;10238240;28;20037;-70
2021/05/12 10:33:12;;;;;;;2.27;0.77;;;;;;;;;;10231670;28;20034;-67
2021/05/12 10:38:27;;;;;;;1.42;1.10;;;;;;;;;;10247102;28;20066;-67
2021/05/12 10:43:35;;;;;;;2.78;0.55;;;;;;;;;;10246667;28;20044;-67
2021/05/12 10:48:39;;;;;;;2.13;0.40;;;;;;;;;;10247114;28;20537;-67
2021/05/12 10:53:44;;;;;;;0.98;0.85;;;;;;;;;;10243262;28;20041;-66
2021/05/12 10:58:57;;;;;;;5.90;2.20;;;;;;;;;;10256099;28;20034;-67
2021/05/12 11:03:54;;;;;;;185.75;51.88;;;;;;;;;;10253925;28;20373;-66
2021/05/12 11:09:01;;;;;;;144.07;55.30;;;;;;;;;;10243195;28;20037;-67
2021/05/12 11:14:17;;;;;;;130.25;49.13;;;;;;;;;;10232011;28;20034;-67
2021/05/12 11:19:33;;;;;;;92.75;37.42;;;;;;;;;;10252312;28;20034;-66
2021/05/12 11:24:47;;;;;;;53.08;23.52;;;;;;;;;;10239260;28;20038;-67
2021/05/12 11:34:45;;;;;;;25.52;10.75;;;;;;;;;;10255452;28;20577;-66
2021/05/12 11:39:44;;;;;;;23.57;8.63;;;;;;;;;;10245433;28;20060;-66
2021/05/12 11:44:42;;;;;;;11.18;5.45;;;;;;;;;;10244918;28;20068;-66
2021/05/12 11:49:40;;;;;;;10.65;4.35;;;;;;;;;;10242988;28;20184;-66
2021/05/12 11:54:37;;;;;;;6.07;3.63;;;;;;;;;;10245788;28;20172;-67
2021/05/12 11:59:39;;;;;;;2.80;2.23;;;;;;;;;;10244689;28;20180;-68
2021/05/12 12:05:00;;;;;;;5.13;2.08;;;;;;;;;;10220015;28;20053;-67
2021/05/12 12:10:00;;;;;;;5.65;1.42;;;;;;;;;;10249289;28;20044;-67
2021/05/12 12:15:05;;;;;;;2.97;1.48;;;;;;;;;;10249574;28;20041;-67
2021/05/12 12:20:04;;;;;;;3.20;1.20;;;;;;;;;;10220106;28;20069;-67
2021/05/12 12:25:18;;;;;;;1.10;0.75;;;;;;;;;;10236915;28;20414;-68
2021/05/12 12:30:16;;;;;;;1.63;1.13;;;;;;;;;;10265036;28;20034;-66
2021/05/12 12:35:13;;;;;;;;;;;;;;;;;;10241548;28;20037;-66
2021/05/12 12:40:11;;;;;;;1.90;0.98;;;;;;;;;;10261022;28;19921;-69
2021/05/12 12:45:15;;;;;;;0.70;0.52;;;;;;;;;;10243375;28;20505;-67
2021/05/12 12:50:12;;;;;;;9.55;2.67;;;;;;;;;;10262431;28;20395;-66
2021/05/12 12:55:36;;;;;;;5.83;3.47;;;;;;;;;;10250876;28;20040;-67
2021/05/12 13:00:42;;;;;;;4.40;2.85;;;;;;;;;;10259136;28;20288;-68
2021/05/12 13:05:51;;;;;;;5.05;2.80;;;;;;;;;;10248846;28;20092;-68
2021/05/12 13:10:50;;;;;;;3.40;2.00;;;;;;;;;;10252433;28;20030;-67
2021/05/12 13:15:48;;;;;;;0.93;0.85;;;;;;;;;;10246880;28;20026;-69
2021/05/12 13:20:47;;;;;;;1.37;1.23;;;;;;;;;;10236010;28;20136;-67
2021/05/12 13:25:46;;;;;;;3.53;2.60;;;;;;;;;;10243630;28;20323;-68
2021/05/12 13:30:43;;;;;;;3.20;1.90;;;;;;;;;;10259519;28;20588;-69
2021/05/12 13:35:41;;;;;;;9.80;4.82;;;;;;;;;;10212432;28;20034;-67
2021/05/12 13:40:38;;;;;;;2.30;1.10;;;;;;;;;;10240638;28;20041;-66
2021/05/12 13:45:36;;;;;;;1.08;0.65;;;;;;;;;;10254994;28;20737;-67
2021/05/12 13:50:35;;;;;;;7.80;4.07;;;;;;;;;;10257119;28;20399;-67
2021/05/12 14:06:04;;;;;;;9.75;6.05;;;;;;;;;;10260498;28;20031;-67
2021/05/12 14:11:02;;;;;;;7.10;4.90;;;;;;;;;;10238033;28;20096;-67
2021/05/12 14:20:58;;;;;;;10.00;5.10;;;;;;;;;;10254890;28;20124;-67
2021/05/12 14:25:55;;;;;;;1.77;0.40;;;;;;;;;;10253402;28;20173;-66
2021/05/12 14:30:55;;;;;;;1.23;0.63;;;;;;;;;;10249795;28;20440;-67
2021/05/12 14:35:52;;;;;;;6.72;2.75;;;;;;;;;;10249265;28;20101;-66
2021/05/12 14:40:49;;;;;;;2.57;1.23;;;;;;;;;;10258471;28;20034;-66
2021/05/12 14:45:47;;;;;;;3.58;1.40;;;;;;;;;;10242676;28;20037;-67
2021/05/12 14:50:44;;;;;;;3.25;1.45;;;;;;;;;;10259153;28;20113;-66
2021/05/12 14:56:06;;;;;;;4.25;1.55;;;;;;;;;;10255699;28;20464;-66
2021/05/12 15:06:32;;;;;;;2.67;0.82;;;;;;;;;;10248783;28;20038;-65
2021/05/12 15:11:29;;;;;;;5.97;2.20;;;;;;;;;;10256619;28;20037;-66
2021/05/12 15:16:27;;;;;;;3.70;0.93;;;;;;;;;;10256726;28;20034;-67
2021/05/12 15:21:24;;;;;;;9.02;2.30;;;;;;;;;;10223984;28;20293;-66
2021/05/12 15:26:22;;;;;;;7.32;2.05;;;;;;;;;;10252494;28;20125;-67
2021/05/12 15:31:19;;;;;;;3.45;0.60;;;;;;;;;;10250162;28;20036;-68
2021/05/12 15:36:17;;;;;;;2.40;1.23;;;;;;;;;;10236290;28;20073;-67
2021/05/12 15:41:14;;;;;;;3.57;1.73;;;;;;;;;;10255399;28;20135;-65
2021/05/12 15:46:15;;;;;;;1.07;0.60;;;;;;;;;;10234799;28;20088;-68
2021/05/12 15:51:12;;;;;;;6.60;2.17;;;;;;;;;;10249628;28;20372;-67
2021/05/12 15:56:11;;;;;;;4.70;1.73;;;;;;;;;;10247076;28;20121;-67
2021/05/12 16:01:08;;;;;;;4.75;1.40;;;;;;;;;;10251327;28;20785;-69
2021/05/12 16:06:06;;;;;;;7.03;2.33;;;;;;;;;;10257827;28;21354;-67
2021/05/12 16:11:07;;;;;;;6.03;1.55;;;;;;;;;;10246471;28;20038;-68
2021/05/12 16:16:14;;;;;;;6.07;1.08;;;;;;;;;;10245571;28;20087;-68
2021/05/12 16:21:12;;;;;;;6.93;1.83;;;;;;;;;;10243461;28;20041;-69
2021/05/12 16:26:10;;;;;;;5.50;2.75;;;;;;;;;;10212972;28;20026;-66
2021/05/12 16:31:07;;;;;;;7.93;2.35;;;;;;;;;;10245801;28;20038;-66
2021/05/12 16:36:05;;;;;;;;;;;;;;;;;;10246587;28;20152;-67
2021/05/12 16:41:02;;;;;;;5.20;1.13;;;;;;;;;;10250896;28;19939;-67
2021/05/12 16:46:00;;;;;;;5.50;1.17;;;;;;;;;;10255620;28;20038;-68
2021/05/12 16:50:59;;;;;;;;;;;;;;;;;;10247839;28;20296;-65
2021/05/12 16:55:57;;;;;;;5.60;1.10;;;;;;;;;;10255831;28;19913;-66
2021/05/12 17:00:54;;;;;;;;;;;;;;;;;;10237562;28;20041;-66
2021/05/12 17:05:52;;;;;;;5.70;1.00;;;;;;;;;;10239794;28;19975;-69
2021/05/12 17:10:50;;;;;;;6.97;1.27;;;;;;;;;;10217467;28;20269;-66
2021/05/12 17:15:48;;;;;;;5.00;1.35;;;;;;;;;;10219268;28;20033;-66
2021/05/12 17:20:45;;;;;;;;;;;;;;;;;;10246602;28;20344;-67
2021/05/12 17:25:43;;;;;;;4.82;1.20;;;;;;;;;;10255280;28;20104;-67
2021/05/12 17:30:40;;;;;;;;;;;;;;;;;;10240274;28;20107;-67
2021/05/12 17:35:37;;;;;;;4.13;0.90;;;;;;;;;;10250152;28;19928;-66
2021/05/12 17:40:36;;;;;;;;;;;;;;;;;;10239200;28;20093;-66
2021/05/12 17:45:33;;;;;;;4.32;0.82;;;;;;;;;;10264463;28;19913;-67
2021/05/12 17:50:31;;;;;;;1.13;0.50;;;;;;;;;;10250604;28;20754;-67
2021/05/12 17:55:29;;;;;;;1.88;0.73;;;;;;;;;;10241679;28;20052;-67
2021/05/12 18:00:27;;;;;;;;;;;;;;;;;;10240768;28;20419;-67
2021/05/12 18:05:28;;;;;;;1.70;1.47;;;;;;;;;;10235558;28;20107;-67
2021/05/12 18:10:39;;;;;;;2.60;0.40;;;;;;;;;;10250109;28;20145;-66
2021/05/12 18:20:53;;;;;;;1.05;0.60;;;;;;;;;;10237592;28;20038;-66
2021/05/12 18:25:50;;;;;;;5.60;1.10;;;;;;;;;;10260478;28;20026;-66
2021/05/12 18:30:51;;;;;;;5.43;0.50;;;;;;;;;;10246270;28;20041;-66
2021/05/12 18:41:05;;;;;;;0.57;0.28;;;;;;;;;;10249687;28;20050;-66
2021/05/12 18:46:02;;;;;;;4.17;0.70;;;;;;;;;;10232081;28;20038;-66
2021/05/12 18:51:00;;;;;;;1.77;0.47;;;;;;;;;;10257047;28;20418;-65
2021/05/12 18:55:57;;;;;;;7.13;1.00;;;;;;;;;;10237049;28;20053;-66
2021/05/12 19:00:55;;;;;;;3.33;0.60;;;;;;;;;;10257064;28;20048;-67
2021/05/12 19:06:15;;;;;;;2.78;0.85;;;;;;;;;;10251407;28;20121;-66
2021/05/12 19:11:21;;;;;;;2.53;0.50;;;;;;;;;;10206468;28;20108;-68
2021/05/12 19:16:30;;;;;;;2.25;0.57;;;;;;;;;;10221979;28;20511;-66
2021/05/12 19:26:45;;;;;;;7.05;1.52;;;;;;;;;;10225368;28;20038;-67
2021/05/12 19:42:18;;;;;;;4.18;1.00;;;;;;;;;;10206664;28;20377;-66
2021/05/12 19:47:17;;;;;;;5.70;1.23;;;;;;;;;;10248974;28;20117;-66
2021/05/12 19:52:14;;;;;;;2.22;0.63;;;;;;;;;;10263483;28;20668;-65
2021/05/12 20:02:19;;;;;;;1.00;0.55;;;;;;;;;;10243774;28;20038;-66
2021/05/12 20:07:23;;;;;;;1.27;0.60;;;;;;;;;;10250827;28;20112;-67
2021/05/12 20:12:34;;;;;;;4.10;0.98;;;;;;;;;;10239460;28;20096;-67
2021/05/12 20:17:32;;;;;;;3.28;0.60;;;;;;;;;;10243875;28;20034;-67
2021/05/12 20:22:29;;;;;;;2.23;0.47;;;;;;;;;;10241164;28;20487;-66
2021/05/12 20:27:29;;;;;;;6.40;0.50;;;;;;;;;;10253770;28;20038;-67
2021/05/12 20:32:46;;;;;;;3.70;0.70;;;;;;;;;;10233911;28;20052;-66
2021/05/12 20:37:44;;;;;;;2.58;0.88;;;;;;;;;;10246769;28;20034;-66
2021/05/12 20:42:41;;;;;;;1.27;0.40;;;;;;;;;;10249164;28;20030;-66
2021/05/12 20:47:39;;;;;;;8.40;2.40;;;;;;;;;;10238640;28;20084;-66
2021/05/12 20:52:36;;;;;;;8.97;2.50;;;;;;;;;;10242765;28;20037;-65
2021/05/12 20:57:34;;;;;;;11.83;3.00;;;;;;;;;;10235749;28;20765;-66
2021/05/12 21:02:31;;;;;;;13.03;2.93;;;;;;;;;;10253674;28;20038;-68
2021/05/12 21:07:29;;;;;;;11.67;3.80;;;;;;;;;;10257769;28;20125;-67
2021/05/12 21:12:29;;;;;;;11.83;3.90;;;;;;;;;;10258855;28;20061;-66
2021/05/12 21:17:29;;;;;;;9.70;3.50;;;;;;;;;;10250278;28;20080;-69
2021/05/12 21:22:38;;;;;;;8.77;3.50;;;;;;;;;;10256626;28;20116;-65
2021/05/12 21:27:35;;;;;;;12.97;3.30;;;;;;;;;;10265368;28;20026;-64
2021/05/12 21:32:38;;;;;;;8.53;3.40;;;;;;;;;;10248924;28;20436;-66
2021/05/12 21:37:35;;;;;;;12.73;3.85;;;;;;;;;;10248624;28;20435;-66
2021/05/12 21:42:33;;;;;;;8.93;4.00;;;;;;;;;;10242743;28;20096;-67
2021/05/12 21:47:30;;;;;;;8.90;2.83;;;;;;;;;;10257670;28;20027;-66
2021/05/12 21:52:27;;;;;;;1.93;0.33;;;;;;;;;;10252613;28;20776;-67
2021/05/12 21:57:25;;;;;;;1.93;0.80;;;;;;;;;;10253215;28;20117;-67
2021/05/12 22:02:22;;;;;;;2.50;0.60;;;;;;;;;;10245639;28;20095;-67
2021/05/12 22:07:34;;;;;;;0.37;0.37;;;;;;;;;;10228017;28;20384;-68
2021/05/12 22:23:05;;;;;;;0.68;0.63;;;;;;;;;;10259470;28;20112;-66
2021/05/12 22:33:00;;;;;;;6.20;0.70;;;;;;;;;;10240476;28;20057;-67
2021/05/12 22:38:00;;;;;;;1.00;0.70;;;;;;;;;;10233938;28;20034;-66
2021/05/12 22:42:57;;;;;;;0.73;0.60;;;;;;;;;;10255655;28;20034;-66
2021/05/12 22:48:03;;;;;;;1.83;1.43;;;;;;;;;;10247262;28;20495;-67
2021/05/12 22:53:04;;;;;;;0.17;0.17;;;;;;;;;;10253678;28;20053;-66
2021/05/12 22:58:02;;;;;;;0.45;0.30;;;;;;;;;;10251934;28;20038;-65
2021/05/12 23:02:59;;;;;;;2.10;0.50;;;;;;;;;;10243821;28;20117;-67
2021/05/12 23:07:57;;;;;;;5.23;1.53;;;;;;;;;;10255605;28;20037;-65
2021/05/12 23:12:54;;;;;;;4.23;1.17;;;;;;;;;;10254398;28;20037;-66
2021/05/12 23:17:51;;;;;;;7.17;2.23;;;;;;;;;;10249881;28;20080;-65
2021/05/12 23:22:49;;;;;;;6.00;2.10;;;;;;;;;;10231992;28;20034;-66
2021/05/12 23:27:46;;;;;;;0.93;0.73;;;;;;;;;;10263837;28;20104;-66
2021/05/12 23:32:45;;;;;;;0.73;0.40;;;;;;;;;;10250939;28;20343;-65
2021/05/12 23:37:42;;;;;;;0.40;0.40;;;;;;;;;;10250425;28;20145;-65
2021/05/12 23:42:46;;;;;;;0.30;0.30;;;;;;;;;;10252961;28;20115;-65
2021/05/12 23:47:44;;;;;;;1.42;0.50;;;;;;;;;;10253927;28;20030;-68
2021/05/12 23:52:42;;;;;;;1.40;0.40;;;;;;;;;;10240255;28;20036;-65
2021/05/12 23:57:40;;;;;;;3.00;0.57;;;;;;;;;;10264092;28;20403;-65
